OIFS  Shahrekord Airport

Add Bookmark

Shahrekord, Iran

Status IATA
Operational CQD
Latitude Longitude
32° 17' 49" N 50° 50' 31" E
32.297199 50.842201
Local (DST + 5) UTC (GMT + 4)
Jan 26, 2015 09:55 Jan 26, 2015 18:25
Sunrise-Sunset Local UTC
Begin Civil Twilight 06:36 03:06
Sunrise 07:02 03:32
Sunset 05:35 14:05
End Civil Twilight 06:01 14:31

Current Weather

METAR Observed VFR
OIFS 261800Z 01006KT 9999 FEW040 SCT090 03/M14 Q1024 Mon, Jan 26, 2015 @ 18:00 UTC
(25 Minutes ago)
Visual Flight Rules
Wind Visibility Clouds Conditions
010° at 6 knots (11 kph) 10 km or more
  • Few at 4,000' AGL
  • Scattered at 9,000' AGL
  • No significant weather
Temperatures Readings Precipitation
Current Temp 3°C (37°F)
Dewpoint -14°C (7°F)
Humidity 28%
Altimeter 30.24"Hg
Sea Level Pressure 1024mb
Field Elevation 6817.59'
None Recorded

Additional weather within a 185.2km radius of OIFS

Map ICAO Location
OIFM 108km E (062°)

24 Hour Weather History

Loading
-

24 Hour Weather Graphs

Loading
-

CheckWX.com is intended as a tool to help pilots better visualize weather data. It is not intended as a substitute for an official weather briefing obtained from a Flight Service Station. CheckWX.com does not meet the FAA requirements for an official pre-flight weather briefing. Therefore, it's important that pilots still call and obtain an official FSS pre-flight weather briefing.